sensor_id;sensor_type;location;lat;lon;timestamp;P1;durP1;ratioP1;P2;durP2;ratioP2
10414;SDS011;5254;47.696;9.138;2022-08-19T00:01:38;10.15;;;8.52;;
10414;SDS011;5254;47.696;9.138;2022-08-19T00:04:07;12.80;;;9.50;;
10414;SDS011;5254;47.696;9.138;2022-08-19T00:06:36;10.13;;;8.30;;
10414;SDS011;5254;47.696;9.138;2022-08-19T00:09:04;12.10;;;9.00;;
10414;SDS011;5254;47.696;9.138;2022-08-19T00:11:32;10.77;;;8.93;;
10414;SDS011;5254;47.696;9.138;2022-08-19T00:13:59;14.48;;;10.38;;
10414;SDS011;5254;47.696;9.138;2022-08-19T00:16:25;10.68;;;8.98;;
10414;SDS011;5254;47.696;9.138;2022-08-19T00:18:51;13.45;;;10.55;;
10414;SDS011;5254;47.696;9.138;2022-08-19T00:21:17;10.85;;;8.95;;
10414;SDS011;5254;47.696;9.138;2022-08-19T00:23:43;11.10;;;8.82;;
10414;SDS011;5254;47.696;9.138;2022-08-19T00:26:09;12.38;;;9.10;;
10414;SDS011;5254;47.696;9.138;2022-08-19T00:28:36;13.77;;;10.30;;
10414;SDS011;5254;47.696;9.138;2022-08-19T00:31:03;11.95;;;9.13;;
10414;SDS011;5254;47.696;9.138;2022-08-19T00:33:29;12.13;;;9.38;;
10414;SDS011;5254;47.696;9.138;2022-08-19T00:35:57;10.70;;;8.77;;
10414;SDS011;5254;47.696;9.138;2022-08-19T00:38:24;11.35;;;9.25;;
10414;SDS011;5254;47.696;9.138;2022-08-19T00:40:50;11.38;;;8.90;;
10414;SDS011;5254;47.696;9.138;2022-08-19T00:43:18;12.50;;;9.85;;
10414;SDS011;5254;47.696;9.138;2022-08-19T00:45:46;10.80;;;8.52;;
10414;SDS011;5254;47.696;9.138;2022-08-19T00:48:12;13.27;;;9.20;;
10414;SDS011;5254;47.696;9.138;2022-08-19T00:50:40;14.52;;;10.93;;
10414;SDS011;5254;47.696;9.138;2022-08-19T00:53:08;14.65;;;10.10;;
10414;SDS011;5254;47.696;9.138;2022-08-19T00:55:40;12.52;;;9.95;;
10414;SDS011;5254;47.696;9.138;2022-08-19T00:58:10;11.65;;;9.38;;
10414;SDS011;5254;47.696;9.138;2022-08-19T01:00:39;14.43;;;10.73;;
10414;SDS011;5254;47.696;9.138;2022-08-19T01:03:06;12.23;;;10.20;;
10414;SDS011;5254;47.696;9.138;2022-08-19T01:05:34;15.95;;;11.52;;
10414;SDS011;5254;47.696;9.138;2022-08-19T01:08:03;13.13;;;10.18;;
10414;SDS011;5254;47.696;9.138;2022-08-19T01:10:31;12.20;;;10.18;;
10414;SDS011;5254;47.696;9.138;2022-08-19T01:13:02;13.68;;;10.63;;
10414;SDS011;5254;47.696;9.138;2022-08-19T01:15:30;15.80;;;11.07;;
10414;SDS011;5254;47.696;9.138;2022-08-19T01:18:00;14.25;;;11.00;;
10414;SDS011;5254;47.696;9.138;2022-08-19T01:20:29;14.07;;;10.65;;
10414;SDS011;5254;47.696;9.138;2022-08-19T01:22:56;20.63;;;13.70;;
10414;SDS011;5254;47.696;9.138;2022-08-19T01:25:28;16.60;;;12.20;;
10414;SDS011;5254;47.696;9.138;2022-08-19T01:27:57;15.05;;;11.57;;
10414;SDS011;5254;47.696;9.138;2022-08-19T01:30:24;21.27;;;14.52;;
10414;SDS011;5254;47.696;9.138;2022-08-19T01:32:56;17.23;;;12.32;;
10414;SDS011;5254;47.696;9.138;2022-08-19T01:35:25;17.88;;;13.23;;
10414;SDS011;5254;47.696;9.138;2022-08-19T01:37:55;19.35;;;14.13;;
10414;SDS011;5254;47.696;9.138;2022-08-19T01:40:24;19.00;;;14.77;;
10414;SDS011;5254;47.696;9.138;2022-08-19T01:42:52;23.88;;;16.25;;
10414;SDS011;5254;47.696;9.138;2022-08-19T01:45:20;20.15;;;15.32;;
10414;SDS011;5254;47.696;9.138;2022-08-19T01:47:47;21.92;;;14.65;;
10414;SDS011;5254;47.696;9.138;2022-08-19T01:50:13;21.42;;;15.02;;
10414;SDS011;5254;47.696;9.138;2022-08-19T01:52:39;22.13;;;15.48;;
10414;SDS011;5254;47.696;9.138;2022-08-19T01:57:35;22.98;;;15.07;;
10414;SDS011;5254;47.696;9.138;2022-08-19T02:00:01;20.75;;;15.23;;
10414;SDS011;5254;47.696;9.138;2022-08-19T02:02:30;20.20;;;15.40;;
10414;SDS011;5254;47.696;9.138;2022-08-19T02:04:56;22.23;;;14.90;;
10414;SDS011;5254;47.696;9.138;2022-08-19T02:07:22;25.60;;;16.35;;
10414;SDS011;5254;47.696;9.138;2022-08-19T02:09:48;21.80;;;14.98;;
10414;SDS011;5254;47.696;9.138;2022-08-19T02:12:14;22.80;;;16.45;;
10414;SDS011;5254;47.696;9.138;2022-08-19T02:14:41;26.70;;;18.30;;
10414;SDS011;5254;47.696;9.138;2022-08-19T02:17:07;24.20;;;17.73;;
10414;SDS011;5254;47.696;9.138;2022-08-19T02:19:32;30.50;;;19.65;;
10414;SDS011;5254;47.696;9.138;2022-08-19T02:21:58;26.17;;;16.42;;
10414;SDS011;5254;47.696;9.138;2022-08-19T02:24:25;29.35;;;19.45;;
10414;SDS011;5254;47.696;9.138;2022-08-19T02:26:52;26.40;;;18.02;;
10414;SDS011;5254;47.696;9.138;2022-08-19T02:29:17;31.65;;;19.98;;
10414;SDS011;5254;47.696;9.138;2022-08-19T02:31:43;25.58;;;17.75;;
10414;SDS011;5254;47.696;9.138;2022-08-19T02:34:09;28.73;;;19.90;;
10414;SDS011;5254;47.696;9.138;2022-08-19T02:36:35;37.47;;;22.40;;
10414;SDS011;5254;47.696;9.138;2022-08-19T02:39:00;28.25;;;19.88;;
10414;SDS011;5254;47.696;9.138;2022-08-19T02:41:27;30.02;;;20.67;;
10414;SDS011;5254;47.696;9.138;2022-08-19T02:43:56;30.02;;;19.95;;
10414;SDS011;5254;47.696;9.138;2022-08-19T02:46:26;37.97;;;22.95;;
10414;SDS011;5254;47.696;9.138;2022-08-19T02:48:56;31.35;;;21.20;;
10414;SDS011;5254;47.696;9.138;2022-08-19T02:51:25;39.83;;;22.30;;
10414;SDS011;5254;47.696;9.138;2022-08-19T02:53:55;33.10;;;21.17;;
10414;SDS011;5254;47.696;9.138;2022-08-19T02:56:21;30.60;;;20.60;;
10414;SDS011;5254;47.696;9.138;2022-08-19T02:58:49;40.25;;;23.67;;
10414;SDS011;5254;47.696;9.138;2022-08-19T03:03:48;32.20;;;20.85;;
10414;SDS011;5254;47.696;9.138;2022-08-19T03:06:15;41.45;;;23.90;;
10414;SDS011;5254;47.696;9.138;2022-08-19T03:08:42;33.78;;;22.17;;
10414;SDS011;5254;47.696;9.138;2022-08-19T03:11:13;46.50;;;25.75;;
10414;SDS011;5254;47.696;9.138;2022-08-19T03:13:50;44.17;;;25.35;;
10414;SDS011;5254;47.696;9.138;2022-08-19T03:16:17;47.35;;;26.35;;
10414;SDS011;5254;47.696;9.138;2022-08-19T03:18:43;41.42;;;24.85;;
10414;SDS011;5254;47.696;9.138;2022-08-19T03:21:13;50.90;;;27.15;;
10414;SDS011;5254;47.696;9.138;2022-08-19T03:23:41;40.92;;;24.98;;
10414;SDS011;5254;47.696;9.138;2022-08-19T03:26:06;55.03;;;28.27;;
10414;SDS011;5254;47.696;9.138;2022-08-19T03:28:32;41.70;;;26.08;;
10414;SDS011;5254;47.696;9.138;2022-08-19T03:31:00;51.90;;;27.13;;
10414;SDS011;5254;47.696;9.138;2022-08-19T03:33:28;37.78;;;23.90;;
10414;SDS011;5254;47.696;9.138;2022-08-19T03:36:04;42.05;;;23.90;;
10414;SDS011;5254;47.696;9.138;2022-08-19T03:38:52;36.03;;;21.98;;
10414;SDS011;5254;47.696;9.138;2022-08-19T03:41:22;37.85;;;22.90;;
10414;SDS011;5254;47.696;9.138;2022-08-19T03:43:49;31.90;;;22.10;;
10414;SDS011;5254;47.696;9.138;2022-08-19T03:46:16;39.55;;;23.38;;
10414;SDS011;5254;47.696;9.138;2022-08-19T03:48:48;33.88;;;22.33;;
10414;SDS011;5254;47.696;9.138;2022-08-19T03:51:23;30.83;;;21.70;;
10414;SDS011;5254;47.696;9.138;2022-08-19T03:53:52;42.22;;;24.13;;
10414;SDS011;5254;47.696;9.138;2022-08-19T03:56:19;32.15;;;21.50;;
10414;SDS011;5254;47.696;9.138;2022-08-19T03:58:45;37.65;;;22.65;;
10414;SDS011;5254;47.696;9.138;2022-08-19T04:01:12;36.80;;;22.42;;
10414;SDS011;5254;47.696;9.138;2022-08-19T04:03:41;34.53;;;22.85;;
10414;SDS011;5254;47.696;9.138;2022-08-19T04:06:16;43.92;;;25.65;;
10414;SDS011;5254;47.696;9.138;2022-08-19T04:08:43;33.40;;;22.80;;
10414;SDS011;5254;47.696;9.138;2022-08-19T04:11:11;36.35;;;23.02;;
10414;SDS011;5254;47.696;9.138;2022-08-19T04:13:38;46.80;;;25.25;;
10414;SDS011;5254;47.696;9.138;2022-08-19T04:16:04;35.35;;;22.52;;
10414;SDS011;5254;47.696;9.138;2022-08-19T04:18:31;44.97;;;26.10;;
10414;SDS011;5254;47.696;9.138;2022-08-19T04:20:58;37.65;;;24.25;;
10414;SDS011;5254;47.696;9.138;2022-08-19T04:23:25;42.45;;;24.75;;
10414;SDS011;5254;47.696;9.138;2022-08-19T04:25:52;36.10;;;22.90;;
10414;SDS011;5254;47.696;9.138;2022-08-19T04:28:17;49.42;;;27.77;;
10414;SDS011;5254;47.696;9.138;2022-08-19T04:30:44;38.20;;;25.38;;
10414;SDS011;5254;47.696;9.138;2022-08-19T04:33:14;47.42;;;27.48;;
10414;SDS011;5254;47.696;9.138;2022-08-19T04:35:42;40.67;;;25.27;;
10414;SDS011;5254;47.696;9.138;2022-08-19T04:38:09;34.92;;;23.73;;
10414;SDS011;5254;47.696;9.138;2022-08-19T04:40:42;48.35;;;27.25;;
10414;SDS011;5254;47.696;9.138;2022-08-19T04:43:29;38.28;;;24.75;;
10414;SDS011;5254;47.696;9.138;2022-08-19T04:45:55;36.53;;;25.73;;
10414;SDS011;5254;47.696;9.138;2022-08-19T04:48:21;37.22;;;25.60;;
10414;SDS011;5254;47.696;9.138;2022-08-19T04:50:54;36.35;;;25.38;;
10414;SDS011;5254;47.696;9.138;2022-08-19T04:53:30;37.58;;;25.27;;
10414;SDS011;5254;47.696;9.138;2022-08-19T04:55:57;45.38;;;26.95;;
10414;SDS011;5254;47.696;9.138;2022-08-19T04:58:24;36.38;;;24.95;;
10414;SDS011;5254;47.696;9.138;2022-08-19T05:00:53;34.10;;;24.67;;
10414;SDS011;5254;47.696;9.138;2022-08-19T05:03:19;38.78;;;26.45;;
10414;SDS011;5254;47.696;9.138;2022-08-19T05:05:47;37.78;;;26.33;;
10414;SDS011;5254;47.696;9.138;2022-08-19T05:08:15;48.95;;;29.00;;
10414;SDS011;5254;47.696;9.138;2022-08-19T05:10:46;33.55;;;25.13;;
10414;SDS011;5254;47.696;9.138;2022-08-19T05:13:16;39.63;;;26.25;;
10414;SDS011;5254;47.696;9.138;2022-08-19T05:15:44;48.95;;;29.33;;
10414;SDS011;5254;47.696;9.138;2022-08-19T05:18:17;36.92;;;26.27;;
10414;SDS011;5254;47.696;9.138;2022-08-19T05:21:05;35.72;;;25.75;;
10414;SDS011;5254;47.696;9.138;2022-08-19T05:23:51;37.20;;;26.20;;
10414;SDS011;5254;47.696;9.138;2022-08-19T05:26:17;46.63;;;28.15;;
10414;SDS011;5254;47.696;9.138;2022-08-19T05:28:42;39.28;;;26.17;;
10414;SDS011;5254;47.696;9.138;2022-08-19T05:31:08;38.80;;;27.60;;
10414;SDS011;5254;47.696;9.138;2022-08-19T05:33:34;39.25;;;27.50;;
10414;SDS011;5254;47.696;9.138;2022-08-19T05:36:00;49.10;;;29.23;;
10414;SDS011;5254;47.696;9.138;2022-08-19T05:38:27;39.60;;;27.30;;
10414;SDS011;5254;47.696;9.138;2022-08-19T05:40:55;47.95;;;30.20;;
10414;SDS011;5254;47.696;9.138;2022-08-19T05:43:20;38.92;;;27.50;;
10414;SDS011;5254;47.696;9.138;2022-08-19T05:45:46;40.00;;;26.52;;
10414;SDS011;5254;47.696;9.138;2022-08-19T05:48:12;42.88;;;27.08;;
10414;SDS011;5254;47.696;9.138;2022-08-19T05:50:39;52.70;;;29.02;;
10414;SDS011;5254;47.696;9.138;2022-08-19T05:53:06;37.05;;;28.60;;
10414;SDS011;5254;47.696;9.138;2022-08-19T05:55:33;38.60;;;27.58;;
10414;SDS011;5254;47.696;9.138;2022-08-19T05:58:00;48.40;;;28.73;;
10414;SDS011;5254;47.696;9.138;2022-08-19T06:00:27;38.28;;;27.85;;
10414;SDS011;5254;47.696;9.138;2022-08-19T06:02:52;34.78;;;26.05;;
10414;SDS011;5254;47.696;9.138;2022-08-19T06:05:27;37.67;;;27.02;;
10414;SDS011;5254;47.696;9.138;2022-08-19T06:07:52;40.58;;;28.55;;
10414;SDS011;5254;47.696;9.138;2022-08-19T06:10:19;37.90;;;27.33;;
10414;SDS011;5254;47.696;9.138;2022-08-19T06:12:46;46.67;;;30.33;;
10414;SDS011;5254;47.696;9.138;2022-08-19T06:15:13;40.03;;;28.90;;
10414;SDS011;5254;47.696;9.138;2022-08-19T06:17:39;36.95;;;26.90;;
10414;SDS011;5254;47.696;9.138;2022-08-19T06:20:07;47.47;;;31.38;;
10414;SDS011;5254;47.696;9.138;2022-08-19T06:22:38;37.97;;;27.67;;
10414;SDS011;5254;47.696;9.138;2022-08-19T06:25:04;38.28;;;28.52;;
10414;SDS011;5254;47.696;9.138;2022-08-19T06:27:31;36.67;;;27.77;;
10414;SDS011;5254;47.696;9.138;2022-08-19T06:29:57;40.55;;;29.58;;
10414;SDS011;5254;47.696;9.138;2022-08-19T06:32:23;36.10;;;28.42;;
10414;SDS011;5254;47.696;9.138;2022-08-19T06:34:49;37.85;;;28.50;;
10414;SDS011;5254;47.696;9.138;2022-08-19T06:37:15;50.65;;;30.92;;
10414;SDS011;5254;47.696;9.138;2022-08-19T06:39:42;38.15;;;28.30;;
10414;SDS011;5254;47.696;9.138;2022-08-19T06:42:09;39.00;;;28.00;;
10414;SDS011;5254;47.696;9.138;2022-08-19T06:44:41;40.17;;;28.40;;
10414;SDS011;5254;47.696;9.138;2022-08-19T06:47:09;39.03;;;28.45;;
10414;SDS011;5254;47.696;9.138;2022-08-19T06:49:37;38.72;;;28.08;;
10414;SDS011;5254;47.696;9.138;2022-08-19T06:52:04;52.75;;;31.95;;
10414;SDS011;5254;47.696;9.138;2022-08-19T06:54:30;38.05;;;28.83;;
10414;SDS011;5254;47.696;9.138;2022-08-19T06:56:57;37.72;;;29.30;;
10414;SDS011;5254;47.696;9.138;2022-08-19T06:59:25;48.78;;;31.15;;
10414;SDS011;5254;47.696;9.138;2022-08-19T07:01:54;41.00;;;29.33;;
10414;SDS011;5254;47.696;9.138;2022-08-19T07:04:22;37.95;;;29.02;;
10414;SDS011;5254;47.696;9.138;2022-08-19T07:06:56;39.75;;;30.40;;
10414;SDS011;5254;47.696;9.138;2022-08-19T07:09:33;42.60;;;31.13;;
10414;SDS011;5254;47.696;9.138;2022-08-19T07:12:02;54.05;;;33.47;;
10414;SDS011;5254;47.696;9.138;2022-08-19T07:14:29;42.13;;;30.67;;
10414;SDS011;5254;47.696;9.138;2022-08-19T07:16:55;52.38;;;33.38;;
10414;SDS011;5254;47.696;9.138;2022-08-19T07:19:23;44.00;;;31.75;;
10414;SDS011;5254;47.696;9.138;2022-08-19T07:21:52;40.22;;;30.52;;
10414;SDS011;5254;47.696;9.138;2022-08-19T07:24:18;41.53;;;31.33;;
10414;SDS011;5254;47.696;9.138;2022-08-19T07:26:45;50.88;;;34.50;;
10414;SDS011;5254;47.696;9.138;2022-08-19T07:29:11;39.33;;;30.67;;
10414;SDS011;5254;47.696;9.138;2022-08-19T07:31:38;52.83;;;34.28;;
10414;SDS011;5254;47.696;9.138;2022-08-19T07:34:04;38.78;;;30.40;;
10414;SDS011;5254;47.696;9.138;2022-08-19T07:36:32;39.60;;;30.95;;
10414;SDS011;5254;47.696;9.138;2022-08-19T07:39:02;41.65;;;31.65;;
10414;SDS011;5254;47.696;9.138;2022-08-19T07:41:31;38.88;;;30.15;;
10414;SDS011;5254;47.696;9.138;2022-08-19T07:43:57;40.65;;;29.83;;
10414;SDS011;5254;47.696;9.138;2022-08-19T07:46:30;40.67;;;29.98;;
10414;SDS011;5254;47.696;9.138;2022-08-19T07:48:57;41.88;;;31.85;;
10414;SDS011;5254;47.696;9.138;2022-08-19T07:51:25;40.75;;;30.90;;
10414;SDS011;5254;47.696;9.138;2022-08-19T07:53:51;41.97;;;30.33;;
10414;SDS011;5254;47.696;9.138;2022-08-19T07:56:18;53.00;;;34.22;;
10414;SDS011;5254;47.696;9.138;2022-08-19T07:58:48;43.42;;;32.03;;
10414;SDS011;5254;47.696;9.138;2022-08-19T08:01:20;55.10;;;34.40;;
10414;SDS011;5254;47.696;9.138;2022-08-19T08:03:49;41.78;;;30.65;;
10414;SDS011;5254;47.696;9.138;2022-08-19T08:06:35;40.97;;;30.67;;
10414;SDS011;5254;47.696;9.138;2022-08-19T08:09:24;43.80;;;30.83;;
10414;SDS011;5254;47.696;9.138;2022-08-19T08:12:03;44.95;;;31.67;;
10414;SDS011;5254;47.696;9.138;2022-08-19T08:14:43;41.22;;;31.25;;
10414;SDS011;5254;47.696;9.138;2022-08-19T08:17:20;46.33;;;32.83;;
10414;SDS011;5254;47.696;9.138;2022-08-19T08:19:48;42.97;;;32.60;;
10414;SDS011;5254;47.696;9.138;2022-08-19T08:22:16;52.67;;;35.88;;
10414;SDS011;5254;47.696;9.138;2022-08-19T08:25:11;42.40;;;31.27;;
10414;SDS011;5254;47.696;9.138;2022-08-19T08:27:39;41.47;;;31.27;;
10414;SDS011;5254;47.696;9.138;2022-08-19T08:30:07;42.72;;;32.33;;
10414;SDS011;5254;47.696;9.138;2022-08-19T08:32:39;43.78;;;32.53;;
10414;SDS011;5254;47.696;9.138;2022-08-19T08:35:06;40.55;;;31.92;;
10414;SDS011;5254;47.696;9.138;2022-08-19T08:37:34;55.78;;;35.17;;
10414;SDS011;5254;47.696;9.138;2022-08-19T08:40:03;46.17;;;32.20;;
10414;SDS011;5254;47.696;9.138;2022-08-19T08:42:32;44.92;;;32.17;;
10414;SDS011;5254;47.696;9.138;2022-08-19T08:45:13;43.88;;;31.10;;
10414;SDS011;5254;47.696;9.138;2022-08-19T08:47:43;55.92;;;33.97;;
10414;SDS011;5254;47.696;9.138;2022-08-19T08:50:17;43.83;;;30.80;;
10414;SDS011;5254;47.696;9.138;2022-08-19T08:52:49;44.17;;;30.98;;
10414;SDS011;5254;47.696;9.138;2022-08-19T08:55:19;45.15;;;30.00;;
10414;SDS011;5254;47.696;9.138;2022-08-19T09:00:35;46.40;;;30.95;;
10414;SDS011;5254;47.696;9.138;2022-08-19T09:03:02;48.08;;;32.78;;
10414;SDS011;5254;47.696;9.138;2022-08-19T09:08:13;48.10;;;32.58;;
10414;SDS011;5254;47.696;9.138;2022-08-19T09:11:08;64.93;;;35.25;;
10414;SDS011;5254;47.696;9.138;2022-08-19T09:13:52;51.03;;;33.90;;
10414;SDS011;5254;47.696;9.138;2022-08-19T09:16:29;63.88;;;36.35;;
10414;SDS011;5254;47.696;9.138;2022-08-19T09:18:56;52.78;;;34.00;;
10414;SDS011;5254;47.696;9.138;2022-08-19T09:21:25;54.55;;;34.85;;
10414;SDS011;5254;47.696;9.138;2022-08-19T09:23:52;65.25;;;35.75;;
10414;SDS011;5254;47.696;9.138;2022-08-19T09:26:19;51.72;;;33.05;;
10414;SDS011;5254;47.696;9.138;2022-08-19T09:28:47;49.65;;;33.35;;
10414;SDS011;5254;47.696;9.138;2022-08-19T09:31:24;49.20;;;31.95;;
10414;SDS011;5254;47.696;9.138;2022-08-19T09:33:51;67.40;;;35.17;;
10414;SDS011;5254;47.696;9.138;2022-08-19T09:36:22;50.35;;;32.88;;
10414;SDS011;5254;47.696;9.138;2022-08-19T09:38:50;52.92;;;33.85;;
10414;SDS011;5254;47.696;9.138;2022-08-19T09:41:20;63.47;;;34.60;;
10414;SDS011;5254;47.696;9.138;2022-08-19T09:43:49;48.75;;;30.98;;
10414;SDS011;5254;47.696;9.138;2022-08-19T09:46:20;44.42;;;29.52;;
10414;SDS011;5254;47.696;9.138;2022-08-19T09:48:48;58.72;;;33.10;;
10414;SDS011;5254;47.696;9.138;2022-08-19T09:51:16;48.42;;;30.40;;
10414;SDS011;5254;47.696;9.138;2022-08-19T09:53:45;57.70;;;32.92;;
10414;SDS011;5254;47.696;9.138;2022-08-19T09:56:15;46.92;;;29.77;;
10414;SDS011;5254;47.696;9.138;2022-08-19T09:58:42;45.83;;;29.50;;
10414;SDS011;5254;47.696;9.138;2022-08-19T10:01:08;46.75;;;28.70;;
10414;SDS011;5254;47.696;9.138;2022-08-19T10:03:40;47.65;;;29.67;;
10414;SDS011;5254;47.696;9.138;2022-08-19T10:06:05;59.05;;;32.03;;
10414;SDS011;5254;47.696;9.138;2022-08-19T10:08:33;47.70;;;29.38;;
10414;SDS011;5254;47.696;9.138;2022-08-19T10:11:00;47.67;;;28.52;;
10414;SDS011;5254;47.696;9.138;2022-08-19T10:13:28;47.47;;;29.23;;
10414;SDS011;5254;47.696;9.138;2022-08-19T10:16:02;60.60;;;31.83;;
10414;SDS011;5254;47.696;9.138;2022-08-19T10:18:30;49.13;;;29.17;;
10414;SDS011;5254;47.696;9.138;2022-08-19T10:21:08;56.30;;;31.50;;
10414;SDS011;5254;47.696;9.138;2022-08-19T10:23:36;57.63;;;30.15;;
10414;SDS011;5254;47.696;9.138;2022-08-19T10:26:04;50.75;;;30.08;;
10414;SDS011;5254;47.696;9.138;2022-08-19T10:28:32;50.22;;;29.85;;
10414;SDS011;5254;47.696;9.138;2022-08-19T10:31:05;53.47;;;30.08;;
10414;SDS011;5254;47.696;9.138;2022-08-19T10:33:33;47.03;;;28.42;;
10414;SDS011;5254;47.696;9.138;2022-08-19T10:36:00;53.33;;;29.70;;
10414;SDS011;5254;47.696;9.138;2022-08-19T10:38:31;53.45;;;31.08;;
10414;SDS011;5254;47.696;9.138;2022-08-19T10:41:06;54.55;;;31.05;;
10414;SDS011;5254;47.696;9.138;2022-08-19T10:43:39;49.40;;;29.58;;
10414;SDS011;5254;47.696;9.138;2022-08-19T10:46:07;81.22;;;34.67;;
10414;SDS011;5254;47.696;9.138;2022-08-19T10:48:37;54.92;;;30.63;;
10414;SDS011;5254;47.696;9.138;2022-08-19T10:51:03;70.88;;;34.47;;
10414;SDS011;5254;47.696;9.138;2022-08-19T10:53:48;56.30;;;30.83;;
10414;SDS011;5254;47.696;9.138;2022-08-19T10:56:15;72.32;;;34.75;;
10414;SDS011;5254;47.696;9.138;2022-08-19T10:59:00;56.50;;;30.42;;
10414;SDS011;5254;47.696;9.138;2022-08-19T11:01:28;63.05;;;31.02;;
10414;SDS011;5254;47.696;9.138;2022-08-19T11:03:55;59.33;;;32.08;;
10414;SDS011;5254;47.696;9.138;2022-08-19T11:06:22;56.85;;;31.70;;
10414;SDS011;5254;47.696;9.138;2022-08-19T11:08:50;60.58;;;30.40;;
10414;SDS011;5254;47.696;9.138;2022-08-19T11:11:17;71.55;;;33.90;;
10414;SDS011;5254;47.696;9.138;2022-08-19T11:13:43;57.67;;;30.48;;
10414;SDS011;5254;47.696;9.138;2022-08-19T11:16:15;58.63;;;32.38;;
10414;SDS011;5254;47.696;9.138;2022-08-19T11:18:46;72.13;;;34.17;;
10414;SDS011;5254;47.696;9.138;2022-08-19T11:21:17;72.88;;;34.70;;
10414;SDS011;5254;47.696;9.138;2022-08-19T11:23:47;89.47;;;39.38;;
10414;SDS011;5254;47.696;9.138;2022-08-19T11:26:16;74.22;;;37.67;;
10414;SDS011;5254;47.696;9.138;2022-08-19T11:28:43;80.30;;;38.67;;
10414;SDS011;5254;47.696;9.138;2022-08-19T11:31:13;79.75;;;39.95;;
10414;SDS011;5254;47.696;9.138;2022-08-19T11:33:42;86.07;;;40.63;;
10414;SDS011;5254;47.696;9.138;2022-08-19T11:36:08;108.65;;;44.53;;
10414;SDS011;5254;47.696;9.138;2022-08-19T11:38:35;81.65;;;40.63;;
10414;SDS011;5254;47.696;9.138;2022-08-19T11:41:02;83.97;;;42.17;;
10414;SDS011;5254;47.696;9.138;2022-08-19T11:43:30;84.50;;;41.38;;
10414;SDS011;5254;47.696;9.138;2022-08-19T11:45:56;109.97;;;46.03;;
10414;SDS011;5254;47.696;9.138;2022-08-19T11:48:23;92.38;;;43.83;;
10414;SDS011;5254;47.696;9.138;2022-08-19T11:50:50;95.85;;;44.10;;
10414;SDS011;5254;47.696;9.138;2022-08-19T11:53:17;97.20;;;44.97;;
10414;SDS011;5254;47.696;9.138;2022-08-19T11:55:45;98.53;;;45.90;;
10414;SDS011;5254;47.696;9.138;2022-08-19T11:58:12;96.43;;;45.22;;
10414;SDS011;5254;47.696;9.138;2022-08-19T12:00:40;100.18;;;46.67;;
10414;SDS011;5254;47.696;9.138;2022-08-19T12:03:06;94.22;;;43.72;;
10414;SDS011;5254;47.696;9.138;2022-08-19T12:05:33;98.85;;;45.92;;
10414;SDS011;5254;47.696;9.138;2022-08-19T12:08:01;102.95;;;46.53;;
10414;SDS011;5254;47.696;9.138;2022-08-19T12:10:26;101.85;;;45.33;;
10414;SDS011;5254;47.696;9.138;2022-08-19T12:12:52;98.65;;;45.70;;
10414;SDS011;5254;47.696;9.138;2022-08-19T12:15:18;110.75;;;47.28;;
10414;SDS011;5254;47.696;9.138;2022-08-19T12:17:44;85.55;;;42.15;;
10414;SDS011;5254;47.696;9.138;2022-08-19T12:20:10;86.60;;;42.13;;
10414;SDS011;5254;47.696;9.138;2022-08-19T12:22:36;86.35;;;42.35;;
10414;SDS011;5254;47.696;9.138;2022-08-19T12:25:03;84.55;;;42.88;;
10414;SDS011;5254;47.696;9.138;2022-08-19T12:27:30;87.63;;;43.45;;
10414;SDS011;5254;47.696;9.138;2022-08-19T12:29:56;90.55;;;44.33;;
10414;SDS011;5254;47.696;9.138;2022-08-19T12:32:22;110.40;;;45.72;;
10414;SDS011;5254;47.696;9.138;2022-08-19T12:34:49;83.35;;;41.58;;
10414;SDS011;5254;47.696;9.138;2022-08-19T12:37:15;85.63;;;41.35;;
10414;SDS011;5254;47.696;9.138;2022-08-19T12:39:42;90.47;;;43.15;;
10414;SDS011;5254;47.696;9.138;2022-08-19T12:42:09;90.28;;;43.53;;
10414;SDS011;5254;47.696;9.138;2022-08-19T12:44:37;105.78;;;46.45;;
10414;SDS011;5254;47.696;9.138;2022-08-19T12:47:04;82.07;;;42.03;;
10414;SDS011;5254;47.696;9.138;2022-08-19T12:49:32;89.85;;;42.45;;
10414;SDS011;5254;47.696;9.138;2022-08-19T12:51:59;89.93;;;42.28;;
10414;SDS011;5254;47.696;9.138;2022-08-19T12:54:26;91.50;;;42.97;;
10414;SDS011;5254;47.696;9.138;2022-08-19T12:56:52;112.50;;;45.47;;
10414;SDS011;5254;47.696;9.138;2022-08-19T12:59:18;91.18;;;43.08;;
10414;SDS011;5254;47.696;9.138;2022-08-19T13:01:44;118.75;;;46.30;;
10414;SDS011;5254;47.696;9.138;2022-08-19T13:04:10;100.45;;;44.33;;
10414;SDS011;5254;47.696;9.138;2022-08-19T13:06:36;92.57;;;42.92;;
10414;SDS011;5254;47.696;9.138;2022-08-19T13:09:03;117.95;;;46.65;;
10414;SDS011;5254;47.696;9.138;2022-08-19T13:11:29;88.40;;;43.63;;
10414;SDS011;5254;47.696;9.138;2022-08-19T13:13:58;122.32;;;49.60;;
10414;SDS011;5254;47.696;9.138;2022-08-19T13:16:24;97.82;;;45.10;;
10414;SDS011;5254;47.696;9.138;2022-08-19T13:18:52;93.07;;;45.13;;
10414;SDS011;5254;47.696;9.138;2022-08-19T13:21:20;126.18;;;49.33;;
10414;SDS011;5254;47.696;9.138;2022-08-19T13:23:48;97.43;;;45.95;;
10414;SDS011;5254;47.696;9.138;2022-08-19T13:26:15;93.47;;;43.60;;
10414;SDS011;5254;47.696;9.138;2022-08-19T13:28:41;119.38;;;47.58;;
10414;SDS011;5254;47.696;9.138;2022-08-19T13:31:27;88.20;;;45.20;;
10414;SDS011;5254;47.696;9.138;2022-08-19T13:34:15;127.07;;;49.22;;
10414;SDS011;5254;47.696;9.138;2022-08-19T13:36:42;98.13;;;44.83;;
10414;SDS011;5254;47.696;9.138;2022-08-19T13:39:08;130.07;;;51.08;;
10414;SDS011;5254;47.696;9.138;2022-08-19T13:41:34;103.60;;;47.38;;
10414;SDS011;5254;47.696;9.138;2022-08-19T13:44:01;107.82;;;49.90;;
10414;SDS011;5254;47.696;9.138;2022-08-19T13:46:28;133.32;;;51.70;;
10414;SDS011;5254;47.696;9.138;2022-08-19T13:48:54;118.93;;;50.53;;
10414;SDS011;5254;47.696;9.138;2022-08-19T13:51:21;132.15;;;52.20;;
10414;SDS011;5254;47.696;9.138;2022-08-19T13:53:47;109.40;;;49.55;;
10414;SDS011;5254;47.696;9.138;2022-08-19T13:56:17;108.95;;;49.17;;
10414;SDS011;5254;47.696;9.138;2022-08-19T13:58:47;136.50;;;52.92;;
10414;SDS011;5254;47.696;9.138;2022-08-19T14:01:18;108.45;;;49.83;;
10414;SDS011;5254;47.696;9.138;2022-08-19T14:03:45;112.10;;;49.33;;
10414;SDS011;5254;47.696;9.138;2022-08-19T14:06:10;146.13;;;54.85;;
10414;SDS011;5254;47.696;9.138;2022-08-19T14:08:36;121.45;;;52.92;;
10414;SDS011;5254;47.696;9.138;2022-08-19T14:11:04;111.28;;;50.50;;
10414;SDS011;5254;47.696;9.138;2022-08-19T14:13:30;142.13;;;54.85;;
10414;SDS011;5254;47.696;9.138;2022-08-19T14:15:58;116.72;;;51.47;;
10414;SDS011;5254;47.696;9.138;2022-08-19T14:18:24;141.40;;;54.88;;
10414;SDS011;5254;47.696;9.138;2022-08-19T14:20:50;116.78;;;51.42;;
10414;SDS011;5254;47.696;9.138;2022-08-19T14:23:16;157.25;;;58.45;;
10414;SDS011;5254;47.696;9.138;2022-08-19T14:25:42;119.85;;;52.25;;
10414;SDS011;5254;47.696;9.138;2022-08-19T14:28:08;122.80;;;54.97;;
10414;SDS011;5254;47.696;9.138;2022-08-19T14:30:34;160.07;;;59.70;;
10414;SDS011;5254;47.696;9.138;2022-08-19T14:33:02;121.35;;;53.30;;
10414;SDS011;5254;47.696;9.138;2022-08-19T14:35:30;126.63;;;54.00;;
10414;SDS011;5254;47.696;9.138;2022-08-19T14:38:04;148.90;;;57.38;;
10414;SDS011;5254;47.696;9.138;2022-08-19T14:40:31;118.70;;;52.22;;
10414;SDS011;5254;47.696;9.138;2022-08-19T14:42:59;154.52;;;57.97;;
10414;SDS011;5254;47.696;9.138;2022-08-19T14:45:28;119.70;;;52.25;;
10414;SDS011;5254;47.696;9.138;2022-08-19T14:47:56;153.52;;;58.53;;
10414;SDS011;5254;47.696;9.138;2022-08-19T14:50:24;115.72;;;54.75;;
10414;SDS011;5254;47.696;9.138;2022-08-19T14:52:56;149.48;;;57.65;;